sensor_id;sensor_type;location;lat;lon;timestamp;P1;durP1;ratioP1;P2;durP2;ratioP2
19087;SDS011;9676;50.916;13.352;2023-08-20T00:00:34;13.83;;;12.30;;
19087;SDS011;9676;50.916;13.352;2023-08-20T00:03:24;17.93;;;12.37;;
19087;SDS011;9676;50.916;13.352;2023-08-20T00:06:14;13.53;;;12.23;;
19087;SDS011;9676;50.916;13.352;2023-08-20T00:09:04;14.13;;;12.70;;
19087;SDS011;9676;50.916;13.352;2023-08-20T00:11:57;13.77;;;12.37;;
19087;SDS011;9676;50.916;13.352;2023-08-20T00:14:52;13.90;;;12.50;;
19087;SDS011;9676;50.916;13.352;2023-08-20T00:17:46;16.30;;;12.20;;
19087;SDS011;9676;50.916;13.352;2023-08-20T00:20:36;13.80;;;12.40;;
19087;SDS011;9676;50.916;13.352;2023-08-20T00:23:27;15.07;;;12.93;;
19087;SDS011;9676;50.916;13.352;2023-08-20T00:26:17;14.20;;;12.73;;
19087;SDS011;9676;50.916;13.352;2023-08-20T00:29:09;17.33;;;14.23;;
19087;SDS011;9676;50.916;13.352;2023-08-20T00:31:58;14.80;;;13.10;;
19087;SDS011;9676;50.916;13.352;2023-08-20T00:34:47;16.47;;;13.27;;
19087;SDS011;9676;50.916;13.352;2023-08-20T00:37:37;14.50;;;13.00;;
19087;SDS011;9676;50.916;13.352;2023-08-20T00:40:26;15.30;;;13.23;;
19087;SDS011;9676;50.916;13.352;2023-08-20T00:43:16;18.50;;;13.30;;
19087;SDS011;9676;50.916;13.352;2023-08-20T00:46:06;15.43;;;13.53;;
19087;SDS011;9676;50.916;13.352;2023-08-20T00:48:56;14.40;;;12.97;;
19087;SDS011;9676;50.916;13.352;2023-08-20T00:51:46;16.17;;;12.90;;
19087;SDS011;9676;50.916;13.352;2023-08-20T00:54:38;13.40;;;12.10;;
19087;SDS011;9676;50.916;13.352;2023-08-20T00:57:28;16.53;;;12.43;;
19087;SDS011;9676;50.916;13.352;2023-08-20T01:00:18;14.17;;;12.77;;
19087;SDS011;9676;50.916;13.352;2023-08-20T01:03:09;13.87;;;12.27;;
19087;SDS011;9676;50.916;13.352;2023-08-20T01:06:01;19.03;;;12.43;;
19087;SDS011;9676;50.916;13.352;2023-08-20T01:09:03;13.47;;;12.07;;
19087;SDS011;9676;50.916;13.352;2023-08-20T01:12:02;13.10;;;11.80;;
19087;SDS011;9676;50.916;13.352;2023-08-20T01:14:52;15.30;;;11.97;;
19087;SDS011;9676;50.916;13.352;2023-08-20T01:17:41;13.53;;;12.13;;
19087;SDS011;9676;50.916;13.352;2023-08-20T01:20:36;12.87;;;11.60;;
19087;SDS011;9676;50.916;13.352;2023-08-20T01:27:08;12.77;;;11.47;;
19087;SDS011;9676;50.916;13.352;2023-08-20T01:30:14;13.13;;;11.80;;
19087;SDS011;9676;50.916;13.352;2023-08-20T01:33:04;12.93;;;11.63;;
19087;SDS011;9676;50.916;13.352;2023-08-20T01:35:55;26.43;;;11.63;;
19087;SDS011;9676;50.916;13.352;2023-08-20T01:38:44;13.00;;;11.70;;
19087;SDS011;9676;50.916;13.352;2023-08-20T01:41:34;13.73;;;12.10;;
19087;SDS011;9676;50.916;13.352;2023-08-20T01:44:23;12.30;;;11.00;;
19087;SDS011;9676;50.916;13.352;2023-08-20T01:47:14;15.27;;;11.10;;
19087;SDS011;9676;50.916;13.352;2023-08-20T01:50:04;12.53;;;11.33;;
19087;SDS011;9676;50.916;13.352;2023-08-20T01:52:54;13.03;;;11.63;;
19087;SDS011;9676;50.916;13.352;2023-08-20T01:55:44;14.07;;;11.30;;
19087;SDS011;9676;50.916;13.352;2023-08-20T01:58:33;15.90;;;11.43;;
19087;SDS011;9676;50.916;13.352;2023-08-20T02:01:23;12.20;;;11.03;;
19087;SDS011;9676;50.916;13.352;2023-08-20T02:04:14;13.30;;;11.87;;
19087;SDS011;9676;50.916;13.352;2023-08-20T02:07:04;12.83;;;11.60;;
19087;SDS011;9676;50.916;13.352;2023-08-20T02:09:53;13.20;;;11.80;;
19087;SDS011;9676;50.916;13.352;2023-08-20T02:12:43;12.80;;;11.50;;
19087;SDS011;9676;50.916;13.352;2023-08-20T02:15:32;12.93;;;11.67;;
19087;SDS011;9676;50.916;13.352;2023-08-20T02:18:22;14.00;;;12.50;;
19087;SDS011;9676;50.916;13.352;2023-08-20T02:21:12;13.67;;;12.00;;
19087;SDS011;9676;50.916;13.352;2023-08-20T02:24:02;13.23;;;11.93;;
19087;SDS011;9676;50.916;13.352;2023-08-20T02:26:52;13.40;;;12.00;;
19087;SDS011;9676;50.916;13.352;2023-08-20T02:29:41;12.90;;;11.60;;
19087;SDS011;9676;50.916;13.352;2023-08-20T02:32:35;13.87;;;11.90;;
19087;SDS011;9676;50.916;13.352;2023-08-20T02:35:24;13.77;;;12.27;;
19087;SDS011;9676;50.916;13.352;2023-08-20T02:38:15;13.80;;;12.30;;
19087;SDS011;9676;50.916;13.352;2023-08-20T02:41:04;15.90;;;12.40;;
19087;SDS011;9676;50.916;13.352;2023-08-20T02:43:54;13.20;;;11.90;;
19087;SDS011;9676;50.916;13.352;2023-08-20T02:46:43;15.70;;;12.40;;
19087;SDS011;9676;50.916;13.352;2023-08-20T02:49:33;13.93;;;12.43;;
19087;SDS011;9676;50.916;13.352;2023-08-20T02:52:23;15.53;;;12.67;;
19087;SDS011;9676;50.916;13.352;2023-08-20T02:55:13;14.03;;;12.53;;
19087;SDS011;9676;50.916;13.352;2023-08-20T02:58:03;13.87;;;12.47;;
19087;SDS011;9676;50.916;13.352;2023-08-20T03:00:55;14.83;;;12.20;;
19087;SDS011;9676;50.916;13.352;2023-08-20T03:03:45;14.50;;;12.70;;
19087;SDS011;9676;50.916;13.352;2023-08-20T03:06:34;13.40;;;12.00;;
19087;SDS011;9676;50.916;13.352;2023-08-20T03:09:24;13.20;;;11.90;;
19087;SDS011;9676;50.916;13.352;2023-08-20T03:12:14;15.10;;;12.33;;
19087;SDS011;9676;50.916;13.352;2023-08-20T03:15:04;14.00;;;12.57;;
19087;SDS011;9676;50.916;13.352;2023-08-20T03:17:55;13.10;;;11.80;;
19087;SDS011;9676;50.916;13.352;2023-08-20T03:20:45;14.70;;;12.73;;
19087;SDS011;9676;50.916;13.352;2023-08-20T03:23:34;13.40;;;12.10;;
19087;SDS011;9676;50.916;13.352;2023-08-20T03:26:24;13.70;;;12.30;;
19087;SDS011;9676;50.916;13.352;2023-08-20T03:29:15;13.70;;;12.30;;
19087;SDS011;9676;50.916;13.352;2023-08-20T03:32:05;14.00;;;12.60;;
19087;SDS011;9676;50.916;13.352;2023-08-20T03:34:54;13.60;;;12.20;;
19087;SDS011;9676;50.916;13.352;2023-08-20T03:37:46;13.80;;;12.40;;
19087;SDS011;9676;50.916;13.352;2023-08-20T03:40:35;19.00;;;12.43;;
19087;SDS011;9676;50.916;13.352;2023-08-20T03:43:25;13.43;;;12.13;;
19087;SDS011;9676;50.916;13.352;2023-08-20T03:46:16;14.43;;;12.73;;
19087;SDS011;9676;50.916;13.352;2023-08-20T03:49:05;14.00;;;12.70;;
19087;SDS011;9676;50.916;13.352;2023-08-20T03:51:54;14.03;;;12.63;;
19087;SDS011;9676;50.916;13.352;2023-08-20T03:54:44;17.53;;;12.53;;
19087;SDS011;9676;50.916;13.352;2023-08-20T03:57:35;13.67;;;12.23;;
19087;SDS011;9676;50.916;13.352;2023-08-20T04:00:25;14.20;;;12.70;;
19087;SDS011;9676;50.916;13.352;2023-08-20T04:03:15;16.93;;;12.73;;
19087;SDS011;9676;50.916;13.352;2023-08-20T04:06:06;12.83;;;11.53;;
19087;SDS011;9676;50.916;13.352;2023-08-20T04:08:57;14.83;;;13.07;;
19087;SDS011;9676;50.916;13.352;2023-08-20T04:11:46;13.63;;;12.23;;
19087;SDS011;9676;50.916;13.352;2023-08-20T04:14:35;14.40;;;12.40;;
19087;SDS011;9676;50.916;13.352;2023-08-20T04:17:25;14.80;;;12.67;;
19087;SDS011;9676;50.916;13.352;2023-08-20T04:20:16;14.30;;;12.90;;
19087;SDS011;9676;50.916;13.352;2023-08-20T04:23:06;17.03;;;12.77;;
19087;SDS011;9676;50.916;13.352;2023-08-20T04:25:56;14.60;;;13.10;;
19087;SDS011;9676;50.916;13.352;2023-08-20T04:28:46;16.47;;;13.23;;
19087;SDS011;9676;50.916;13.352;2023-08-20T04:31:35;14.07;;;12.67;;
19087;SDS011;9676;50.916;13.352;2023-08-20T04:34:28;21.50;;;14.53;;
19087;SDS011;9676;50.916;13.352;2023-08-20T04:37:19;14.00;;;12.50;;
19087;SDS011;9676;50.916;13.352;2023-08-20T04:40:09;21.73;;;12.80;;
19087;SDS011;9676;50.916;13.352;2023-08-20T04:43:02;14.07;;;12.63;;
19087;SDS011;9676;50.916;13.352;2023-08-20T04:45:53;14.50;;;12.50;;
19087;SDS011;9676;50.916;13.352;2023-08-20T04:48:43;14.23;;;12.83;;
19087;SDS011;9676;50.916;13.352;2023-08-20T04:51:33;14.13;;;12.50;;
19087;SDS011;9676;50.916;13.352;2023-08-20T04:54:23;14.57;;;12.67;;
19087;SDS011;9676;50.916;13.352;2023-08-20T04:57:13;14.43;;;12.30;;
19087;SDS011;9676;50.916;13.352;2023-08-20T05:00:04;13.47;;;12.10;;
19087;SDS011;9676;50.916;13.352;2023-08-20T05:03:07;14.07;;;12.57;;
19087;SDS011;9676;50.916;13.352;2023-08-20T05:05:56;14.27;;;12.77;;
19087;SDS011;9676;50.916;13.352;2023-08-20T05:08:46;14.33;;;12.90;;
19087;SDS011;9676;50.916;13.352;2023-08-20T05:11:37;13.60;;;12.30;;
19087;SDS011;9676;50.916;13.352;2023-08-20T05:14:26;14.07;;;12.57;;
19087;SDS011;9676;50.916;13.352;2023-08-20T05:17:16;15.80;;;12.27;;
19087;SDS011;9676;50.916;13.352;2023-08-20T05:20:05;14.50;;;12.83;;
19087;SDS011;9676;50.916;13.352;2023-08-20T05:22:57;13.87;;;12.47;;
19087;SDS011;9676;50.916;13.352;2023-08-20T05:25:47;14.57;;;12.33;;
19087;SDS011;9676;50.916;13.352;2023-08-20T05:28:38;14.40;;;12.77;;
19087;SDS011;9676;50.916;13.352;2023-08-20T05:31:27;13.93;;;12.43;;
19087;SDS011;9676;50.916;13.352;2023-08-20T05:34:17;13.63;;;12.30;;
19087;SDS011;9676;50.916;13.352;2023-08-20T05:37:06;14.20;;;12.50;;
19087;SDS011;9676;50.916;13.352;2023-08-20T05:39:56;13.87;;;12.47;;
19087;SDS011;9676;50.916;13.352;2023-08-20T05:42:45;16.90;;;12.60;;
19087;SDS011;9676;50.916;13.352;2023-08-20T05:45:40;13.87;;;12.10;;
19087;SDS011;9676;50.916;13.352;2023-08-20T05:48:32;18.13;;;11.73;;
19087;SDS011;9676;50.916;13.352;2023-08-20T05:51:22;13.00;;;11.73;;
19087;SDS011;9676;50.916;13.352;2023-08-20T05:54:12;13.70;;;12.30;;
19087;SDS011;9676;50.916;13.352;2023-08-20T05:57:01;15.50;;;11.90;;
19087;SDS011;9676;50.916;13.352;2023-08-20T05:59:51;13.43;;;12.03;;
19087;SDS011;9676;50.916;13.352;2023-08-20T06:02:42;13.83;;;12.33;;
19087;SDS011;9676;50.916;13.352;2023-08-20T06:05:32;13.70;;;12.30;;
19087;SDS011;9676;50.916;13.352;2023-08-20T06:08:21;13.83;;;12.40;;
19087;SDS011;9676;50.916;13.352;2023-08-20T06:11:10;13.53;;;12.17;;
19087;SDS011;9676;50.916;13.352;2023-08-20T06:14:00;13.93;;;12.53;;
19087;SDS011;9676;50.916;13.352;2023-08-20T06:16:50;13.73;;;12.33;;
19087;SDS011;9676;50.916;13.352;2023-08-20T06:19:40;13.40;;;12.00;;
19087;SDS011;9676;50.916;13.352;2023-08-20T06:22:30;13.23;;;11.93;;
19087;SDS011;9676;50.916;13.352;2023-08-20T06:25:20;13.23;;;11.83;;
19087;SDS011;9676;50.916;13.352;2023-08-20T06:28:09;17.27;;;12.20;;
19087;SDS011;9676;50.916;13.352;2023-08-20T06:30:58;13.07;;;11.77;;
19087;SDS011;9676;50.916;13.352;2023-08-20T06:33:48;12.60;;;11.30;;
19087;SDS011;9676;50.916;13.352;2023-08-20T06:36:39;16.17;;;11.70;;
19087;SDS011;9676;50.916;13.352;2023-08-20T06:39:28;14.83;;;11.37;;
19087;SDS011;9676;50.916;13.352;2023-08-20T06:42:18;13.90;;;11.40;;
19087;SDS011;9676;50.916;13.352;2023-08-20T06:45:07;13.80;;;12.00;;
19087;SDS011;9676;50.916;13.352;2023-08-20T06:47:57;11.90;;;10.80;;
19087;SDS011;9676;50.916;13.352;2023-08-20T06:50:47;13.30;;;10.60;;
19087;SDS011;9676;50.916;13.352;2023-08-20T06:53:38;12.90;;;10.97;;
19087;SDS011;9676;50.916;13.352;2023-08-20T06:56:28;13.73;;;10.80;;
19087;SDS011;9676;50.916;13.352;2023-08-20T06:59:17;11.35;;;10.15;;
19087;SDS011;9676;50.916;13.352;2023-08-20T07:02:07;13.15;;;10.27;;
19087;SDS011;9676;50.916;13.352;2023-08-20T07:04:57;10.90;;;9.90;;
19087;SDS011;9676;50.916;13.352;2023-08-20T07:07:46;10.52;;;9.52;;
19087;SDS011;9676;50.916;13.352;2023-08-20T07:10:37;10.77;;;9.60;;
19087;SDS011;9676;50.916;13.352;2023-08-20T07:13:26;11.05;;;9.95;;
19087;SDS011;9676;50.916;13.352;2023-08-20T07:16:16;11.05;;;9.80;;
19087;SDS011;9676;50.916;13.352;2023-08-20T07:19:05;10.20;;;9.30;;
19087;SDS011;9676;50.916;13.352;2023-08-20T07:21:55;10.20;;;9.20;;
19087;SDS011;9676;50.916;13.352;2023-08-20T07:24:44;10.05;;;9.15;;
19087;SDS011;9676;50.916;13.352;2023-08-20T07:27:35;9.90;;;9.00;;
19087;SDS011;9676;50.916;13.352;2023-08-20T07:30:25;11.55;;;9.18;;
19087;SDS011;9676;50.916;13.352;2023-08-20T07:33:14;10.35;;;9.43;;
19087;SDS011;9676;50.916;13.352;2023-08-20T07:36:04;10.70;;;9.23;;
19087;SDS011;9676;50.916;13.352;2023-08-20T07:38:53;10.23;;;9.10;;
19087;SDS011;9676;50.916;13.352;2023-08-20T07:41:43;10.10;;;9.10;;
19087;SDS011;9676;50.916;13.352;2023-08-20T07:44:34;10.00;;;9.10;;
19087;SDS011;9676;50.916;13.352;2023-08-20T07:47:23;9.75;;;8.85;;
19087;SDS011;9676;50.916;13.352;2023-08-20T07:50:13;9.90;;;9.00;;
19087;SDS011;9676;50.916;13.352;2023-08-20T07:53:02;9.60;;;8.80;;
19087;SDS011;9676;50.916;13.352;2023-08-20T07:55:52;9.35;;;8.60;;
19087;SDS011;9676;50.916;13.352;2023-08-20T07:58:41;9.20;;;8.50;;
19087;SDS011;9676;50.916;13.352;2023-08-20T08:01:32;9.30;;;8.50;;
19087;SDS011;9676;50.916;13.352;2023-08-20T08:04:21;9.60;;;8.80;;
19087;SDS011;9676;50.916;13.352;2023-08-20T08:07:11;9.57;;;8.75;;
19087;SDS011;9676;50.916;13.352;2023-08-20T08:10:00;9.77;;;8.93;;
19087;SDS011;9676;50.916;13.352;2023-08-20T08:12:50;10.02;;;8.70;;
19087;SDS011;9676;50.916;13.352;2023-08-20T08:15:40;9.32;;;8.48;;
19087;SDS011;9676;50.916;13.352;2023-08-20T08:18:31;9.40;;;8.57;;
19087;SDS011;9676;50.916;13.352;2023-08-20T08:21:20;17.83;;;8.90;;
19087;SDS011;9676;50.916;13.352;2023-08-20T08:24:10;9.45;;;8.68;;
19087;SDS011;9676;50.916;13.352;2023-08-20T08:27:00;9.45;;;8.57;;
19087;SDS011;9676;50.916;13.352;2023-08-20T08:29:50;9.15;;;8.35;;
19087;SDS011;9676;50.916;13.352;2023-08-20T08:32:39;9.52;;;8.73;;
19087;SDS011;9676;50.916;13.352;2023-08-20T08:35:30;9.38;;;8.60;;
19087;SDS011;9676;50.916;13.352;2023-08-20T08:38:20;9.80;;;9.00;;
19087;SDS011;9676;50.916;13.352;2023-08-20T08:41:13;12.75;;;9.20;;
19087;SDS011;9676;50.916;13.352;2023-08-20T08:44:04;10.25;;;9.30;;
19087;SDS011;9676;50.916;13.352;2023-08-20T08:46:57;10.52;;;9.23;;
19087;SDS011;9676;50.916;13.352;2023-08-20T08:49:46;14.77;;;9.10;;
19087;SDS011;9676;50.916;13.352;2023-08-20T08:52:39;9.93;;;9.00;;
19087;SDS011;9676;50.916;13.352;2023-08-20T08:55:30;10.07;;;9.10;;
19087;SDS011;9676;50.916;13.352;2023-08-20T08:58:19;14.13;;;9.05;;
19087;SDS011;9676;50.916;13.352;2023-08-20T09:01:08;10.45;;;9.45;;
19087;SDS011;9676;50.916;13.352;2023-08-20T09:03:58;9.70;;;8.80;;
19087;SDS011;9676;50.916;13.352;2023-08-20T09:06:48;10.18;;;9.27;;
19087;SDS011;9676;50.916;13.352;2023-08-20T09:09:43;10.27;;;9.38;;
19087;SDS011;9676;50.916;13.352;2023-08-20T09:12:33;10.80;;;9.43;;
19087;SDS011;9676;50.916;13.352;2023-08-20T09:15:29;10.73;;;9.73;;
19087;SDS011;9676;50.916;13.352;2023-08-20T09:18:22;10.57;;;9.57;;
19087;SDS011;9676;50.916;13.352;2023-08-20T09:21:12;10.80;;;9.80;;
19087;SDS011;9676;50.916;13.352;2023-08-20T09:24:02;11.13;;;10.00;;
19087;SDS011;9676;50.916;13.352;2023-08-20T09:26:57;10.85;;;9.77;;
19087;SDS011;9676;50.916;13.352;2023-08-20T09:29:48;17.40;;;10.93;;
19087;SDS011;9676;50.916;13.352;2023-08-20T09:32:39;12.40;;;11.10;;
19087;SDS011;9676;50.916;13.352;2023-08-20T09:35:28;11.53;;;10.43;;
19087;SDS011;9676;50.916;13.352;2023-08-20T09:38:18;13.00;;;11.70;;
19087;SDS011;9676;50.916;13.352;2023-08-20T09:41:09;12.90;;;11.60;;
19087;SDS011;9676;50.916;13.352;2023-08-20T09:44:02;11.93;;;10.73;;
19087;SDS011;9676;50.916;13.352;2023-08-20T09:46:54;12.43;;;11.23;;
19087;SDS011;9676;50.916;13.352;2023-08-20T09:49:44;11.60;;;10.50;;
19087;SDS011;9676;50.916;13.352;2023-08-20T09:52:38;13.02;;;10.80;;
19087;SDS011;9676;50.916;13.352;2023-08-20T09:55:38;11.90;;;10.80;;
19087;SDS011;9676;50.916;13.352;2023-08-20T09:58:30;11.52;;;10.32;;
19087;SDS011;9676;50.916;13.352;2023-08-20T10:01:21;11.40;;;10.40;;
19087;SDS011;9676;50.916;13.352;2023-08-20T10:04:12;11.13;;;10.13;;
19087;SDS011;9676;50.916;13.352;2023-08-20T10:07:01;11.27;;;10.27;;
19087;SDS011;9676;50.916;13.352;2023-08-20T10:09:51;10.85;;;9.75;;
19087;SDS011;9676;50.916;13.352;2023-08-20T10:12:41;10.60;;;9.60;;
19087;SDS011;9676;50.916;13.352;2023-08-20T10:15:32;10.52;;;9.43;;
19087;SDS011;9676;50.916;13.352;2023-08-20T10:18:30;9.95;;;9.15;;
19087;SDS011;9676;50.916;13.352;2023-08-20T10:21:23;10.10;;;9.20;;
19087;SDS011;9676;50.916;13.352;2023-08-20T10:24:16;10.10;;;9.20;;
19087;SDS011;9676;50.916;13.352;2023-08-20T10:27:07;10.35;;;9.35;;
19087;SDS011;9676;50.916;13.352;2023-08-20T10:29:58;10.05;;;9.02;;
19087;SDS011;9676;50.916;13.352;2023-08-20T10:32:49;9.93;;;9.10;;
19087;SDS011;9676;50.916;13.352;2023-08-20T10:35:47;9.90;;;9.10;;
19087;SDS011;9676;50.916;13.352;2023-08-20T10:38:39;10.00;;;9.20;;
19087;SDS011;9676;50.916;13.352;2023-08-20T10:41:28;10.18;;;9.27;;
19087;SDS011;9676;50.916;13.352;2023-08-20T10:44:20;10.02;;;9.02;;
19087;SDS011;9676;50.916;13.352;2023-08-20T10:47:15;10.15;;;9.25;;
19087;SDS011;9676;50.916;13.352;2023-08-20T10:50:07;10.70;;;9.60;;
19087;SDS011;9676;50.916;13.352;2023-08-20T10:52:59;10.10;;;9.25;;
19087;SDS011;9676;50.916;13.352;2023-08-20T10:55:52;10.13;;;9.23;;
19087;SDS011;9676;50.916;13.352;2023-08-20T10:58:43;10.00;;;9.20;;
19087;SDS011;9676;50.916;13.352;2023-08-20T11:01:35;10.40;;;9.48;;
19087;SDS011;9676;50.916;13.352;2023-08-20T11:04:27;10.20;;;9.30;;
19087;SDS011;9676;50.916;13.352;2023-08-20T11:07:20;10.05;;;9.15;;
19087;SDS011;9676;50.916;13.352;2023-08-20T11:10:12;10.35;;;9.40;;
19087;SDS011;9676;50.916;13.352;2023-08-20T11:13:02;11.32;;;9.20;;
19087;SDS011;9676;50.916;13.352;2023-08-20T11:15:53;10.07;;;9.18;;
19087;SDS011;9676;50.916;13.352;2023-08-20T11:18:42;9.95;;;9.15;;
19087;SDS011;9676;50.916;13.352;2023-08-20T11:21:32;9.85;;;9.05;;
19087;SDS011;9676;50.916;13.352;2023-08-20T11:24:21;11.07;;;9.98;;
19087;SDS011;9676;50.916;13.352;2023-08-20T11:27:13;10.93;;;9.93;;
19087;SDS011;9676;50.916;13.352;2023-08-20T11:30:03;11.45;;;10.35;;
19087;SDS011;9676;50.916;13.352;2023-08-20T11:32:54;11.43;;;10.43;;
19087;SDS011;9676;50.916;13.352;2023-08-20T11:35:44;11.32;;;10.20;;
19087;SDS011;9676;50.916;13.352;2023-08-20T11:38:33;11.50;;;10.35;;
19087;SDS011;9676;50.916;13.352;2023-08-20T11:41:23;12.02;;;10.90;;
19087;SDS011;9676;50.916;13.352;2023-08-20T11:44:20;12.55;;;11.25;;
19087;SDS011;9676;50.916;13.352;2023-08-20T11:47:13;12.30;;;11.10;;
19087;SDS011;9676;50.916;13.352;2023-08-20T11:50:03;12.30;;;11.10;;
19087;SDS011;9676;50.916;13.352;2023-08-20T11:52:54;12.20;;;11.10;;
19087;SDS011;9676;50.916;13.352;2023-08-20T11:55:43;12.17;;;10.90;;
19087;SDS011;9676;50.916;13.352;2023-08-20T11:58:33;13.27;;;11.30;;
19087;SDS011;9676;50.916;13.352;2023-08-20T12:01:24;12.20;;;11.00;;
19087;SDS011;9676;50.916;13.352;2023-08-20T12:04:13;11.90;;;10.80;;
19087;SDS011;9676;50.916;13.352;2023-08-20T12:07:03;12.53;;;11.27;;
19087;SDS011;9676;50.916;13.352;2023-08-20T12:09:56;12.30;;;11.20;;
19087;SDS011;9676;50.916;13.352;2023-08-20T12:12:45;12.60;;;11.30;;
19087;SDS011;9676;50.916;13.352;2023-08-20T12:15:36;13.20;;;11.90;;
19087;SDS011;9676;50.916;13.352;2023-08-20T12:18:27;12.43;;;11.23;;
19087;SDS011;9676;50.916;13.352;2023-08-20T12:21:17;12.17;;;11.07;;
19087;SDS011;9676;50.916;13.352;2023-08-20T12:24:07;12.87;;;11.23;;
19087;SDS011;9676;50.916;13.352;2023-08-20T12:26:57;12.27;;;11.07;;
19087;SDS011;9676;50.916;13.352;2023-08-20T12:29:47;12.77;;;11.37;;
19087;SDS011;9676;50.916;13.352;2023-08-20T12:32:36;12.07;;;10.87;;
19087;SDS011;9676;50.916;13.352;2023-08-20T12:35:27;12.13;;;10.97;;
19087;SDS011;9676;50.916;13.352;2023-08-20T12:38:17;12.20;;;11.00;;
19087;SDS011;9676;50.916;13.352;2023-08-20T12:41:06;11.73;;;10.63;;
19087;SDS011;9676;50.916;13.352;2023-08-20T12:43:55;12.27;;;11.07;;
19087;SDS011;9676;50.916;13.352;2023-08-20T12:46:45;12.40;;;11.20;;
19087;SDS011;9676;50.916;13.352;2023-08-20T12:49:35;12.80;;;11.50;;
19087;SDS011;9676;50.916;13.352;2023-08-20T12:52:25;12.40;;;11.30;;
19087;SDS011;9676;50.916;13.352;2023-08-20T12:55:15;12.80;;;11.00;;
19087;SDS011;9676;50.916;13.352;2023-08-20T12:58:05;13.40;;;11.57;;
19087;SDS011;9676;50.916;13.352;2023-08-20T13:00:55;13.03;;;11.40;;
19087;SDS011;9676;50.916;13.352;2023-08-20T13:03:44;12.27;;;11.07;;
19087;SDS011;9676;50.916;13.352;2023-08-20T13:06:36;12.17;;;11.00;;
19087;SDS011;9676;50.916;13.352;2023-08-20T13:09:29;11.93;;;10.67;;
19087;SDS011;9676;50.916;13.352;2023-08-20T13:12:19;15.60;;;10.67;;
19087;SDS011;9676;50.916;13.352;2023-08-20T13:15:14;12.20;;;11.00;;
19087;SDS011;9676;50.916;13.352;2023-08-20T13:18:05;12.03;;;10.90;;
19087;SDS011;9676;50.916;13.352;2023-08-20T13:20:56;11.90;;;10.80;;
19087;SDS011;9676;50.916;13.352;2023-08-20T13:23:46;12.00;;;10.80;;
19087;SDS011;9676;50.916;13.352;2023-08-20T13:26:36;11.83;;;10.73;;
19087;SDS011;9676;50.916;13.352;2023-08-20T13:29:26;11.60;;;10.50;;
19087;SDS011;9676;50.916;13.352;2023-08-20T13:32:15;17.87;;;10.90;;
19087;SDS011;9676;50.916;13.352;2023-08-20T13:35:05;12.33;;;11.13;;
19087;SDS011;9676;50.916;13.352;2023-08-20T13:37:55;12.00;;;10.73;;
19087;SDS011;9676;50.916;13.352;2023-08-20T13:40:45;15.33;;;10.80;;
19087;SDS011;9676;50.916;13.352;2023-08-20T13:43:36;11.90;;;10.70;;
19087;SDS011;9676;50.916;13.352;2023-08-20T13:46:25;12.07;;;10.87;;
19087;SDS011;9676;50.916;13.352;2023-08-20T13:49:15;11.90;;;10.80;;
19087;SDS011;9676;50.916;13.352;2023-08-20T13:52:05;12.47;;;11.27;;
19087;SDS011;9676;50.916;13.352;2023-08-20T13:54:55;11.87;;;10.77;;
19087;SDS011;9676;50.916;13.352;2023-08-20T13:57:44;13.43;;;11.33;;
19087;SDS011;9676;50.916;13.352;2023-08-20T14:00:35;13.80;;;10.53;;
19087;SDS011;9676;50.916;13.352;2023-08-20T14:03:24;13.10;;;11.80;;
19087;SDS011;9676;50.916;13.352;2023-08-20T14:06:14;12.90;;;11.53;;
19087;SDS011;9676;50.916;13.352;2023-08-20T14:09:04;13.20;;;11.00;;
19087;SDS011;9676;50.916;13.352;2023-08-20T14:11:53;13.17;;;11.37;;
19087;SDS011;9676;50.916;13.352;2023-08-20T14:14:42;13.03;;;11.73;;
19087;SDS011;9676;50.916;13.352;2023-08-20T14:17:33;12.60;;;11.33;;
19087;SDS011;9676;50.916;13.352;2023-08-20T14:20:23;11.90;;;10.80;;
19087;SDS011;9676;50.916;13.352;2023-08-20T14:23:12;12.07;;;10.97;;
19087;SDS011;9676;50.916;13.352;2023-08-20T14:26:03;12.83;;;11.50;;
19087;SDS011;9676;50.916;13.352;2023-08-20T14:28:54;12.33;;;11.20;;
19087;SDS011;9676;50.916;13.352;2023-08-20T14:31:44;12.63;;;11.37;;
19087;SDS011;9676;50.916;13.352;2023-08-20T14:34:35;14.90;;;11.37;;
19087;SDS011;9676;50.916;13.352;2023-08-20T14:37:24;12.53;;;11.23;;
19087;SDS011;9676;50.916;13.352;2023-08-20T14:40:13;12.63;;;11.33;;
19087;SDS011;9676;50.916;13.352;2023-08-20T14:43:03;12.67;;;11.47;;
19087;SDS011;9676;50.916;13.352;2023-08-20T14:45:53;12.80;;;11.50;;
19087;SDS011;9676;50.916;13.352;2023-08-20T14:48:42;17.07;;;11.47;;
19087;SDS011;9676;50.916;13.352;2023-08-20T14:51:33;12.53;;;11.23;;
19087;SDS011;9676;50.916;13.352;2023-08-20T14:54:23;12.63;;;11.40;;
19087;SDS011;9676;50.916;13.352;2023-08-20T14:57:12;13.43;;;11.70;;
19087;SDS011;9676;50.916;13.352;2023-08-20T15:00:05;13.57;;;12.20;;
19087;SDS011;9676;50.916;13.352;2023-08-20T15:03:01;13.40;;;12.00;;
19087;SDS011;9676;50.916;13.352;2023-08-20T15:05:52;13.07;;;11.63;;
19087;SDS011;9676;50.916;13.352;2023-08-20T15:08:42;18.83;;;11.87;;
19087;SDS011;9676;50.916;13.352;2023-08-20T15:11:32;13.20;;;11.80;;
19087;SDS011;9676;50.916;13.352;2023-08-20T15:14:22;13.20;;;11.93;;
19087;SDS011;9676;50.916;13.352;2023-08-20T15:17:11;12.83;;;11.57;;
19087;SDS011;9676;50.916;13.352;2023-08-20T15:20:00;12.60;;;11.40;;
19087;SDS011;9676;50.916;13.352;2023-08-20T15:22:52;15.03;;;11.17;;
19087;SDS011;9676;50.916;13.352;2023-08-20T15:25:43;12.33;;;11.13;;
19087;SDS011;9676;50.916;13.352;2023-08-20T15:28:35;12.03;;;10.93;;
19087;SDS011;9676;50.916;13.352;2023-08-20T15:31:24;12.53;;;11.33;;
19087;SDS011;9676;50.916;13.352;2023-08-20T15:34:16;12.93;;;11.73;;
19087;SDS011;9676;50.916;13.352;2023-08-20T15:37:05;12.43;;;11.13;;
19087;SDS011;9676;50.916;13.352;2023-08-20T15:39:54;12.30;;;11.10;;
19087;SDS011;9676;50.916;13.352;2023-08-20T15:42:45;12.73;;;11.53;;
19087;SDS011;9676;50.916;13.352;2023-08-20T15:45:35;12.50;;;11.30;;
19087;SDS011;9676;50.916;13.352;2023-08-20T15:48:24;12.67;;;11.37;;
19087;SDS011;9676;50.916;13.352;2023-08-20T15:51:14;13.77;;;12.37;;
19087;SDS011;9676;50.916;13.352;2023-08-20T15:54:03;12.20;;;10.90;;
19087;SDS011;9676;50.916;13.352;2023-08-20T15:56:53;12.03;;;10.83;;
19087;SDS011;9676;50.916;13.352;2023-08-20T15:59:45;11.50;;;10.40;;
19087;SDS011;9676;50.916;13.352;2023-08-20T16:02:35;11.90;;;10.57;;
19087;SDS011;9676;50.916;13.352;2023-08-20T16:05:24;15.27;;;10.20;;
19087;SDS011;9676;50.916;13.352;2023-08-20T16:08:14;11.27;;;10.17;;
19087;SDS011;9676;50.916;13.352;2023-08-20T16:11:03;11.00;;;9.90;;
19087;SDS011;9676;50.916;13.352;2023-08-20T16:13:53;10.90;;;9.90;;
19087;SDS011;9676;50.916;13.352;2023-08-20T16:16:44;10.60;;;9.60;;
19087;SDS011;9676;50.916;13.352;2023-08-20T16:19:33;10.80;;;9.80;;
19087;SDS011;9676;50.916;13.352;2023-08-20T16:22:23;10.30;;;9.30;;
19087;SDS011;9676;50.916;13.352;2023-08-20T16:25:12;11.13;;;10.03;;
19087;SDS011;9676;50.916;13.352;2023-08-20T16:28:02;10.80;;;9.70;;
19087;SDS011;9676;50.916;13.352;2023-08-20T16:30:52;10.90;;;9.80;;
19087;SDS011;9676;50.916;13.352;2023-08-20T16:33:43;11.50;;;10.30;;
19087;SDS011;9676;50.916;13.352;2023-08-20T16:36:32;11.20;;;10.20;;
19087;SDS011;9676;50.916;13.352;2023-08-20T16:39:22;11.60;;;10.40;;
19087;SDS011;9676;50.916;13.352;2023-08-20T16:42:11;12.93;;;10.93;;
19087;SDS011;9676;50.916;13.352;2023-08-20T16:45:01;12.00;;;10.50;;